Time;durP1;ratioP1;P1;durP2;ratioP2;P2;SDS_P1;SDS_P2;PMS_P1;PMS_P2;Temp;Humidity;BMP_temperature;BMP_pressure;BME280_temperature;BME280_humidity;BME280_pressure;Samples;Min_cycle;Max_cycle;Signal;HPM_P1;HPM_P2
2023/04/23 00:07:06;;;;;;;6.20;2.17;;;;;;;25.37;43.53;100978.94;20973644;28;20037;-72
2023/04/23 00:17:07;;;;;;;6.00;2.03;;;;;;;25.33;43.35;100981.53;20984870;28;20394;-75
2023/04/23 00:27:08;;;;;;;4.65;2.00;;;;;;;25.21;43.72;100950.44;20965439;28;20063;-79
2023/04/23 00:37:10;;;;;;;5.07;2.08;;;;;;;25.28;43.74;100957.25;20981249;28;20106;-78
2023/04/23 00:47:12;;;;;;;3.38;2.03;;;;;;;25.23;43.53;100948.97;20974943;28;20044;-79
2023/04/23 00:57:15;;;;;;;8.15;2.55;;;;;;;25.09;43.42;100948.13;20981086;28;20041;-71
2023/04/23 01:07:20;;;;;;;6.10;2.00;;;;;;;25.34;43.63;100944.00;20973177;28;20114;-72
2023/04/23 01:17:25;;;;;;;4.18;2.03;;;;;;;25.34;43.62;100933.63;20971786;28;20415;-74
2023/04/23 01:27:29;;;;;;;6.80;2.20;;;;;;;25.30;43.70;100932.59;20976866;28;20768;-73
2023/04/23 01:37:32;;;;;;;2.35;1.70;;;;;;;25.04;43.65;100889.41;20974653;28;20045;-75
2023/04/23 01:47:34;;;;;;;14.77;2.50;;;;;;;25.23;43.49;100914.53;20972040;28;20458;-74
2023/04/23 01:57:36;;;;;;;5.75;1.88;;;;;;;25.39;42.85;100896.28;20990385;28;20071;-75
2023/04/23 02:07:38;;;;;;;5.30;1.92;;;;;;;25.14;43.00;100861.22;20996267;28;20075;-75
2023/04/23 02:17:42;;;;;;;6.38;1.90;;;;;;;25.41;43.76;100899.59;21006412;28;20041;-74
2023/04/23 02:27:46;;;;;;;6.10;1.70;;;;;;;25.25;43.36;100879.47;21007195;28;20566;-74
2023/04/23 02:37:53;;;;;;;4.20;1.80;;;;;;;25.29;42.57;100852.50;21007793;28;20044;-74
2023/04/23 02:47:54;;;;;;;5.13;1.80;;;;;;;25.24;43.73;100844.19;20986708;28;20032;-75
2023/04/23 02:57:56;;;;;;;3.83;1.23;;;;;;;25.42;43.66;100883.59;20986393;28;20040;-76
2023/04/23 03:07:57;;;;;;;2.72;1.30;;;;;;;25.42;43.42;100890.03;20977039;28;20055;-75
2023/04/23 03:18:00;;;;;;;4.10;1.83;;;;;;;25.42;43.58;100908.81;20996973;28;20048;-75
2023/04/23 03:28:01;;;;;;;3.22;1.33;;;;;;;25.22;43.39;100913.69;20987634;28;20024;-75
2023/04/23 03:38:06;;;;;;;2.65;1.20;;;;;;;25.41;43.28;100935.16;20993252;28;20052;-75
2023/04/23 03:48:07;;;;;;;1.58;1.05;;;;;;;25.41;43.23;100921.16;20989935;28;20044;-76
2023/04/23 03:58:09;;;;;;;2.40;1.65;;;;;;;25.41;43.09;100933.19;20985906;28;20053;-74
2023/04/23 04:08:11;;;;;;;4.57;1.20;;;;;;;25.37;43.04;100934.97;20974653;28;20058;-75
2023/04/23 04:18:14;;;;;;;1.80;1.08;;;;;;;25.35;43.56;100915.66;20981367;28;20070;-76
2023/04/23 04:28:16;;;;;;;2.60;1.23;;;;;;;25.37;42.69;100914.53;20984640;28;20044;-76
2023/04/23 04:38:18;;;;;;;2.65;1.20;;;;;;;25.29;42.62;100891.72;20920945;28;20049;-76
2023/04/23 04:48:20;;;;;;;2.17;1.63;;;;;;;25.37;42.87;100880.91;20906034;28;20134;-75
2023/04/23 04:58:21;;;;;;;4.35;1.42;;;;;;;25.24;43.44;100830.19;20881443;28;20491;-76
2023/04/23 05:08:23;;;;;;;1.90;1.30;;;;;;;25.06;43.32;100791.91;20912871;28;20041;-76
2023/04/23 05:18:25;;;;;;;2.88;1.38;;;;;;;25.25;43.39;100791.84;20894543;28;20562;-75
2023/04/23 05:28:26;;;;;;;2.65;1.33;;;;;;;25.36;43.72;100804.44;20898504;28;20025;-75
2023/04/23 05:38:30;;;;;;;1.77;1.17;;;;;;;25.15;43.62;100794.84;20967290;28;20557;-76
2023/04/23 05:48:34;;;;;;;1.70;1.00;;;;;;;25.35;43.56;100820.44;20984467;28;20763;-76
2023/04/23 05:58:38;;;;;;;2.05;1.00;;;;;;;25.24;43.79;100760.19;20982808;28;20048;-76
2023/04/23 06:08:43;;;;;;;2.83;1.23;;;;;;;25.30;43.83;100777.72;20985277;28;20036;-75
2023/04/23 06:18:44;;;;;;;0.98;0.88;;;;;;;25.28;43.84;100769.59;20977968;28;20101;-76
2023/04/23 06:28:49;;;;;;;1.58;0.80;;;;;;;25.21;44.01;100749.63;20982718;28;20383;-76
2023/04/23 06:38:51;;;;;;;1.40;1.08;;;;;;;25.25;43.68;100759.06;20916622;28;20041;-76
2023/04/23 06:48:55;;;;;;;1.73;1.23;;;;;;;25.04;44.11;100752.22;20915438;28;20045;-76
2023/04/23 06:58:56;;;;;;;2.65;1.42;;;;;;;25.06;44.31;100769.50;20912759;28;20090;-76
2023/04/23 07:08:57;;;;;;;1.60;1.00;;;;;;;25.06;44.29;100791.91;20930845;28;20106;-76
2023/04/23 07:19:01;;;;;;;2.10;1.20;;;;;;;24.96;44.32;100803.31;21048642;28;20044;-76
2023/04/23 07:29:06;;;;;;;1.70;1.13;;;;;;;24.91;44.52;100814.63;20994119;28;20032;-76
2023/04/23 07:39:08;;;;;;;2.17;1.30;;;;;;;24.04;44.30;100687.63;20989578;28;20056;-76
2023/04/23 07:49:15;;;;;;;2.58;1.42;;;;;;;24.56;44.55;100797.44;20992392;28;20041;-76
2023/04/23 07:59:16;;;;;;;1.00;0.90;;;;;;;24.66;44.11;100847.59;20992517;28;20048;-75
2023/04/23 08:09:17;;;;;;;1.80;1.00;;;;;;;24.68;44.09;100870.47;20990914;28;20067;-76
2023/04/23 08:19:19;;;;;;;2.13;1.13;;;;;;;24.45;44.33;100823.91;20992686;28;20074;-76
2023/04/23 08:29:20;;;;;;;1.27;0.93;;;;;;;24.60;44.40;100840.41;20986527;28;20468;-76
2023/04/23 08:39:21;;;;;;;1.75;0.90;;;;;;;24.44;44.34;100819.47;20958938;28;20102;-75
2023/04/23 08:49:32;;;;;;;3.40;1.30;;;;;;;24.49;44.28;100810.97;20951360;28;20063;-75
2023/04/23 08:59:35;;;;;;;1.98;1.50;;;;;;;24.22;44.38;100750.19;20946794;28;20033;-74
2023/04/23 09:09:42;;;;;;;2.03;1.20;;;;;;;24.45;43.93;100799.56;20936281;28;20039;-74
2023/04/23 09:19:45;;;;;;;1.70;1.20;;;;;;;24.35;43.77;100820.13;20949953;28;20055;-76
2023/04/23 09:29:51;;;;;;;1.35;1.20;;;;;;;24.36;43.81;100834.94;20977358;28;20348;-75
2023/04/23 09:39:57;;;;;;;1.83;1.02;;;;;;;24.33;43.49;100825.22;20914242;28;20044;-75
2023/04/23 09:49:59;;;;;;;1.83;1.20;;;;;;;24.16;43.88;100791.41;20908346;28;20041;-75
2023/04/23 10:00:18;;;;;;;2.60;1.20;;;;;;;24.21;43.87;100810.88;20895850;28;20130;-75
2023/04/23 10:10:20;;;;;;;2.13;1.20;;;;;;;24.20;43.64;100831.59;20894265;28;20033;-75
2023/04/23 10:20:22;;;;;;;1.92;1.02;;;;;;;24.05;43.40;100820.66;20905134;28;20076;-74
2023/04/23 10:30:27;;;;;;;1.80;1.10;;;;;;;23.91;43.09;100845.75;20911907;28;20041;-75
2023/04/23 10:40:36;;;;;;;1.77;1.25;;;;;;;24.05;43.24;100873.78;20944970;28;20044;-75
2023/04/23 10:50:40;;;;;;;1.70;1.10;;;;;;;23.91;43.05;100890.47;20956936;28;20029;-75
2023/04/23 11:00:44;;;;;;;1.80;0.90;;;;;;;23.88;43.22;100882.72;20948598;28;20094;-75
2023/04/23 11:10:57;;;;;;;1.35;1.02;;;;;;;23.80;43.25;100911.34;20963391;28;20032;-75
2023/04/23 11:20:58;;;;;;;1.67;1.27;;;;;;;23.53;42.58;100879.25;20951409;28;20045;-76
2023/04/23 11:31:00;;;;;;;2.67;1.30;;;;;;;23.64;42.86;100912.63;20939157;28;20048;-75
2023/04/23 11:41:02;;;;;;;4.85;1.20;;;;;;;23.71;42.78;100932.69;20939962;28;20041;-75
2023/04/23 11:51:03;;;;;;;9.10;1.55;;;;;;;23.70;42.95;100943.03;20923337;28;20495;-73
2023/04/23 12:01:05;;;;;;;3.47;1.38;;;;;;;23.61;42.16;100946.78;20911562;28;20106;-74
2023/04/23 12:11:06;;;;;;;2.72;1.48;;;;;;;23.61;42.87;100958.78;20921163;28;20044;-75
2023/04/23 12:21:09;;;;;;;15.15;2.80;;;;;;;23.64;42.26;100969.38;20895308;28;20095;-76
2023/04/23 12:31:18;;;;;;;5.78;1.20;;;;;;;23.50;41.90;100974.84;20930891;28;20040;-72
2023/04/23 12:41:20;;;;;;;3.10;1.20;;;;;;;23.42;42.28;100969.91;20992653;28;20393;-75
2023/04/23 12:51:21;;;;;;;11.02;1.67;;;;;;;23.57;41.90;101007.97;20934033;28;20028;-73
2023/04/23 13:01:25;;;;;;;3.60;1.23;;;;;;;23.39;41.54;100989.22;20896245;28;20052;-80
2023/04/23 13:11:31;;;;;;;2.97;1.50;;;;;;;23.32;40.63;101003.50;20877517;28;20072;-78
2023/04/23 13:21:32;;;;;;;4.15;1.48;;;;;;;23.40;40.72;101041.13;20875432;28;20037;-78
2023/04/23 13:31:42;;;;;;;2.63;1.30;;;;;;;23.26;40.58;101038.19;20922187;28;20110;-79
2023/04/23 13:41:44;;;;;;;3.00;1.55;;;;;;;23.33;40.13;101069.41;20977050;28;20037;-78
2023/04/23 13:51:45;;;;;;;2.33;1.30;;;;;;;23.36;41.05;101087.53;21002972;28;20726;-77
2023/04/23 14:01:50;;;;;;;3.60;1.60;;;;;;;23.31;40.52;101088.41;21008869;28;20043;-78
2023/04/23 14:11:53;;;;;;;1.90;1.38;;;;;;;23.32;39.42;101107.69;20991077;28;20045;-77
2023/04/23 14:21:55;;;;;;;2.15;1.48;;;;;;;23.23;39.68;101103.00;21008126;28;20032;-78
2023/04/23 14:31:56;;;;;;;2.10;1.55;;;;;;;23.11;39.45;101100.59;21006817;28;20048;-79
2023/04/23 14:41:57;;;;;;;1.90;1.13;;;;;;;23.01;39.49;101095.09;21006231;28;20094;-79
2023/04/23 14:51:59;;;;;;;1.45;1.08;;;;;;;23.29;39.00;101138.97;20980600;28;20143;-78
2023/04/23 15:02:04;;;;;;;1.50;1.10;;;;;;;23.19;37.84;101127.88;21004693;28;20028;-80
2023/04/23 15:12:26;;;;;;;1.90;1.15;;;;;;;23.28;38.95;101120.56;21005167;28;20029;-78
2023/04/23 15:22:27;;;;;;;1.15;1.05;;;;;;;23.17;38.74;101115.34;21004870;28;20383;-78
2023/04/23 15:32:28;;;;;;;1.88;1.27;;;;;;;23.39;38.31;101124.06;20979914;28;20036;-80
2023/04/23 15:42:31;;;;;;;1.40;1.20;;;;;;;23.34;37.18;101124.94;20921379;28;20037;-80
2023/04/23 15:52:36;;;;;;;4.35;1.20;;;;;;;23.18;35.32;101106.66;20901608;28;20049;-78
2023/04/23 16:02:37;;;;;;;2.25;1.40;;;;;;;23.32;33.62;101130.00;20918974;28;20029;-80
2023/04/23 16:12:44;;;;;;;1.77;1.20;;;;;;;23.08;33.69;101090.84;20916562;28;20029;-79
2023/04/23 16:22:45;;;;;;;2.08;1.30;;;;;;;23.18;35.00;101083.50;20916193;28;20033;-79
2023/04/23 16:32:47;;;;;;;1.70;1.17;;;;;;;22.81;34.97;101007.59;20909056;28;20044;-78
2023/04/23 16:42:48;;;;;;;4.10;1.20;;;;;;;23.26;33.52;101069.75;20996462;28;20036;-78
2023/04/23 16:52:49;;;;;;;2.30;1.30;;;;;;;23.20;33.69;101053.34;20996511;28;20036;-79
2023/04/23 17:02:51;;;;;;;1.80;1.40;;;;;;;23.29;32.85;101062.75;20993337;28;20040;-78
2023/04/23 17:12:55;;;;;;;1.23;0.82;;;;;;;23.22;32.38;101043.53;20995456;28;20036;-79
2023/04/23 17:22:56;;;;;;;1.67;1.23;;;;;;;23.14;32.45;101021.84;20994454;28;20028;-80
2023/04/23 17:33:01;;;;;;;3.00;1.30;;;;;;;23.26;32.91;101039.03;20967596;28;20451;-79
2023/04/23 17:43:02;;;;;;;3.60;1.30;;;;;;;23.28;32.72;101036.78;20910485;28;20037;-78
2023/04/23 17:53:04;;;;;;;2.83;1.50;;;;;;;23.27;32.97;101035.09;20910182;28;20052;-78
2023/04/23 18:03:07;;;;;;;2.60;1.10;;;;;;;23.38;33.99;101038.63;20907960;28;20044;-77
2023/04/23 18:13:10;;;;;;;6.97;1.60;;;;;;;23.26;33.17;101013.91;20891740;28;20041;-78
2023/04/23 18:23:13;;;;;;;2.58;1.60;;;;;;;23.37;33.63;101038.91;20909666;28;20445;-79
2023/04/23 18:33:33;;;;;;;1.70;1.40;;;;;;;23.51;33.68;101059.47;20920682;28;20106;-79
2023/04/23 18:43:34;;;;;;;2.95;1.38;;;;;;;23.33;33.05;101030.31;21006226;28;20549;-78
2023/04/23 18:53:37;;;;;;;1.60;1.20;;;;;;;23.51;31.97;101051.06;21005692;28;20036;-79
2023/04/23 19:03:39;;;;;;;1.77;1.08;;;;;;;23.52;32.13;101072.28;20985362;28;20151;-80
2023/04/23 19:13:43;;;;;;;1.90;1.27;;;;;;;23.45;33.40;101057.81;21002853;28;20052;-79
2023/04/23 19:23:47;;;;;;;2.55;1.70;;;;;;;23.40;32.74;101047.53;21003937;28;20463;-78
2023/04/23 19:33:48;;;;;;;2.10;1.30;;;;;;;23.58;32.00;101076.69;21001991;28;20102;-79
2023/04/23 19:43:52;;;;;;;1.95;1.30;;;;;;;23.56;31.34;101073.38;21002799;28;20088;-78
2023/04/23 19:53:55;;;;;;;3.42;1.52;;;;;;;23.55;31.90;101088.47;21015350;28;20048;-80
2023/04/23 20:03:56;;;;;;;1.83;1.50;;;;;;;23.47;32.13;101084.34;21002822;28;20078;-79
2023/04/23 20:14:00;;;;;;;1.88;1.35;;;;;;;23.39;32.83;101067.41;20998801;28;20048;-78
2023/04/23 20:24:02;;;;;;;2.58;1.60;;;;;;;23.55;32.82;101094.88;20998843;28;20025;-78
2023/04/23 20:34:04;;;;;;;31.77;3.55;;;;;;;23.55;32.51;101110.81;20998259;28;20102;-78
2023/04/23 20:44:10;;;;;;;6.75;2.20;;;;;;;23.62;31.76;101133.63;20996596;28;20445;-73
2023/04/23 20:54:12;;;;;;;4.28;2.00;;;;;;;23.64;31.90;101155.69;20995822;28;20048;-73
2023/04/23 21:04:13;;;;;;;5.63;2.30;;;;;;;23.62;31.55;101155.97;20994667;28;20446;-73
2023/04/23 21:14:15;;;;;;;3.55;1.80;;;;;;;23.53;32.35;101149.38;20995098;28;20040;-73
2023/04/23 21:24:16;;;;;;;6.82;1.92;;;;;;;23.62;33.22;101161.56;20962588;28;20037;-74
2023/04/23 21:34:18;;;;;;;5.45;2.42;;;;;;;23.63;32.55;101163.22;20990899;28;20510;-74
2023/04/23 21:44:22;;;;;;;5.93;2.30;;;;;;;23.71;33.18;101176.59;20978746;28;20521;-74
2023/04/23 21:54:24;;;;;;;6.32;5.45;;;;;;;23.70;31.77;101200.09;20987142;28;20492;-74
2023/04/23 22:04:26;;;;;;;5.03;4.30;;;;;;;23.61;31.21;101193.44;20990423;28;20032;-72
2023/04/23 22:14:27;;;;;;;5.05;3.97;;;;;;;23.50;31.29;101195.50;20982282;28;20106;-74
2023/04/23 22:24:32;;;;;;;5.00;3.90;;;;;;;23.28;32.00;101156.84;20990639;28;20086;-73
2023/04/23 22:34:33;;;;;;;11.32;3.60;;;;;;;23.56;31.18;101227.00;20994883;28;20044;-75
2023/04/23 22:44:36;;;;;;;6.72;2.95;;;;;;;23.58;30.98;101239.53;20971082;28;20067;-74
2023/04/23 22:54:41;;;;;;;4.38;2.90;;;;;;;23.53;30.75;101249.91;21004280;28;20462;-75
2023/04/23 23:04:45;;;;;;;5.68;2.65;;;;;;;23.26;29.65;101242.84;21006746;28;20028;-74
2023/04/23 23:14:46;;;;;;;3.05;2.75;;;;;;;23.30;29.76;101280.25;21013570;28;20063;-71
2023/04/23 23:24:47;;;;;;;2.92;2.30;;;;;;;23.18;29.29;101296.50;21016041;28;20372;-75
2023/04/23 23:34:49;;;;;;;3.80;2.38;;;;;;;22.98;29.31;101293.81;21015849;28;20049;-73
2023/04/23 23:44:50;;;;;;;3.80;2.40;;;;;;;22.95;30.17;101316.72;21014794;28;20388;-73
2023/04/23 23:54:56;;;;;;;16.08;3.03;;;;;;;22.94;30.07;101356.91;21012362;28;20411;-73
